createdAt,value
2022-08-14T00:00:10.079Z,19.95
2022-08-14T00:03:29.584Z,19.96
2022-08-14T00:06:31.945Z,19.71
2022-08-14T00:09:55.751Z,19.73
2022-08-14T00:12:57.958Z,19.72
2022-08-14T00:16:00.961Z,19.81
2022-08-14T00:19:06.564Z,19.82
2022-08-14T00:22:22.082Z,19.83
2022-08-14T00:25:53.794Z,19.85
2022-08-14T00:29:01.385Z,19.87
2022-08-14T00:32:50.152Z,19.77
2022-08-14T00:36:36.817Z,19.36
2022-08-14T00:38:48.888Z,19.45
2022-08-14T00:41:51.500Z,19.60
2022-08-14T00:44:55.553Z,19.55
2022-08-14T00:47:58.459Z,19.37
2022-08-14T00:51:02.376Z,19.32
2022-08-14T00:54:16.918Z,19.20
2022-08-14T00:57:29.061Z,19.22
2022-08-14T01:00:37.591Z,19.17
2022-08-14T01:03:45.875Z,18.94
2022-08-14T01:06:55.485Z,19.23
2022-08-14T01:10:01.864Z,18.82
2022-08-14T01:13:04.415Z,18.78
2022-08-14T01:16:10.925Z,18.82
2022-08-14T01:19:35.752Z,18.71
2022-08-14T01:22:38.700Z,18.70
2022-08-14T01:25:47.276Z,18.75
2022-08-14T01:28:57.889Z,18.79
2022-08-14T01:32:01.757Z,18.82
2022-08-14T01:35:21.145Z,18.84
2022-08-14T01:38:34.292Z,18.80
2022-08-14T01:41:40.799Z,18.76
2022-08-14T01:44:43.737Z,18.82
2022-08-14T01:47:52.065Z,18.83
2022-08-14T01:51:19.996Z,18.88
2022-08-14T01:54:24.713Z,18.94
2022-08-14T01:58:00.974Z,18.79
2022-08-14T02:01:06.138Z,18.91
2022-08-14T02:04:40.639Z,18.76
2022-08-14T02:07:53.409Z,18.74
2022-08-14T02:11:18.696Z,18.82
2022-08-14T02:14:31.699Z,18.86
2022-08-14T02:17:35.245Z,18.79
2022-08-14T02:20:37.897Z,18.76
2022-08-14T02:23:41.111Z,18.71
2022-08-14T02:28:18.923Z,18.77
2022-08-14T02:30:13.803Z,18.77
2022-08-14T02:33:15.964Z,18.82
2022-08-14T02:37:05.129Z,18.89
2022-08-14T02:39:45.901Z,18.87
2022-08-14T02:42:54.599Z,18.87
2022-08-14T02:45:58.646Z,18.88
2022-08-14T02:49:06.373Z,18.91
2022-08-14T02:52:16.069Z,18.86
2022-08-14T02:55:33.234Z,18.90
2022-08-14T02:58:42.347Z,18.90
2022-08-14T03:01:50.563Z,18.81
2022-08-14T03:04:56.775Z,18.87
2022-08-14T03:08:08.084Z,18.90
2022-08-14T03:11:12.545Z,18.98
2022-08-14T03:14:15.550Z,18.88
2022-08-14T03:17:20.053Z,18.80
2022-08-14T03:20:30.073Z,18.72
2022-08-14T03:23:38.150Z,18.68
2022-08-14T03:26:45.340Z,18.59
2022-08-14T03:29:48.460Z,18.60
2022-08-14T03:32:51.502Z,18.68
2022-08-14T03:35:59.519Z,18.74
2022-08-14T03:39:22.084Z,18.81
2022-08-14T03:42:25.258Z,18.78
2022-08-14T03:45:40.459Z,18.74
2022-08-14T03:48:54.276Z,18.75
2022-08-14T03:52:01.088Z,18.69
2022-08-14T03:55:12.315Z,18.72
2022-08-14T03:58:23.782Z,18.70
2022-08-14T04:01:41.568Z,18.72
2022-08-14T04:04:56.417Z,18.72
2022-08-14T04:08:23.177Z,18.81
2022-08-14T04:11:35.902Z,18.74
2022-08-14T04:14:40.650Z,18.98
2022-08-14T04:17:45.048Z,19.00
2022-08-14T04:20:54.809Z,19.03
2022-08-14T04:23:59.268Z,19.04
2022-08-14T04:27:01.502Z,19.13
2022-08-14T04:30:05.871Z,19.33
2022-08-14T04:33:18.429Z,19.43
2022-08-14T04:36:24.016Z,19.65
2022-08-14T04:39:46.776Z,20.20
2022-08-14T04:43:08.135Z,20.68
2022-08-14T04:46:56.667Z,20.53
2022-08-14T04:49:46.504Z,20.50
2022-08-14T04:52:58.915Z,20.60
2022-08-14T04:56:01.772Z,20.59
2022-08-14T04:59:10.630Z,20.79
2022-08-14T05:02:14.364Z,21.18
2022-08-14T05:05:16.879Z,22.22
2022-08-14T05:08:31.714Z,23.93
2022-08-14T05:11:42.511Z,25.96
2022-08-14T05:14:55.257Z,27.11
2022-08-14T05:18:03.577Z,28.37
2022-08-14T05:22:00.222Z,29.51
2022-08-14T05:24:41.879Z,30.88
2022-08-14T05:27:46.142Z,31.53
2022-08-14T05:30:50.511Z,32.39
2022-08-14T05:33:56.947Z,32.99
2022-08-14T05:37:03.621Z,34.01
2022-08-14T05:40:10.662Z,35.22
2022-08-14T05:43:15.520Z,35.82
2022-08-14T05:46:22.781Z,35.28
2022-08-14T05:49:25.904Z,34.92
2022-08-14T05:52:39.353Z,34.80
2022-08-14T05:55:44.408Z,34.30
2022-08-14T05:58:47.536Z,34.52
2022-08-14T06:01:51.129Z,35.02
2022-08-14T06:04:53.773Z,35.68
2022-08-14T06:07:58.153Z,36.65
2022-08-14T06:11:03.676Z,37.65
2022-08-14T06:14:12.507Z,37.26
2022-08-14T06:17:26.240Z,38.05
2022-08-14T06:20:30.303Z,37.22
2022-08-14T06:23:33.151Z,38.66
2022-08-14T06:26:35.519Z,39.43
2022-08-14T06:29:40.600Z,40.81
2022-08-14T06:32:43.246Z,41.52
2022-08-14T06:35:47.400Z,41.64
2022-08-14T06:38:51.893Z,41.98
2022-08-14T06:41:59.289Z,41.93
2022-08-14T06:45:02.879Z,42.13
2022-08-14T06:48:14.547Z,42.10
2022-08-14T06:51:19.448Z,42.69
2022-08-14T06:54:22.615Z,42.69
2022-08-14T06:57:45.967Z,43.47
2022-08-14T07:01:07.326Z,43.48
2022-08-14T07:04:27.845Z,43.33
2022-08-14T07:07:41.333Z,44.31
2022-08-14T07:10:48.026Z,43.34
2022-08-14T07:13:52.578Z,43.63
2022-08-14T07:16:55.496Z,43.18
2022-08-14T07:19:58.278Z,43.25
2022-08-14T07:23:09.106Z,44.03
2022-08-14T07:26:14.225Z,43.52
2022-08-14T07:29:17.721Z,43.35
2022-08-14T07:32:33.767Z,42.03
2022-08-14T07:35:57.440Z,42.77
2022-08-14T07:39:03.379Z,42.85
2022-08-14T07:42:14.291Z,41.78
2022-08-14T07:45:22.601Z,41.97
2022-08-14T07:48:25.303Z,41.61
2022-08-14T07:51:36.810Z,41.13
2022-08-14T07:54:41.501Z,40.32
2022-08-14T07:57:47.492Z,38.81
2022-08-14T08:00:51.471Z,37.75
2022-08-14T08:04:03.859Z,36.22
2022-08-14T08:07:18.949Z,36.44
2022-08-14T08:11:01.567Z,34.75
2022-08-14T08:13:55.505Z,34.07
2022-08-14T08:16:59.759Z,34.04
2022-08-14T08:20:01.926Z,32.85
2022-08-14T08:23:06.714Z,32.40
2022-08-14T08:26:08.883Z,31.77
2022-08-14T08:29:19.266Z,31.40
2022-08-14T08:32:29.997Z,30.29
2022-08-14T08:35:46.803Z,30.84
2022-08-14T08:39:14.756Z,30.73
2022-08-14T08:42:31.566Z,30.85
2022-08-14T08:45:41.018Z,31.03
2022-08-14T08:52:05.311Z,30.87
2022-08-14T08:55:08.298Z,30.54
2022-08-14T08:58:19.873Z,30.35
2022-08-14T09:01:31.415Z,30.58
2022-08-14T09:04:52.866Z,30.62
2022-08-14T09:08:30.479Z,31.05
2022-08-14T09:11:32.116Z,30.85
2022-08-14T09:14:35.191Z,30.67
2022-08-14T09:17:43.544Z,31.12
2022-08-14T09:20:49.374Z,31.12
2022-08-14T09:24:28.404Z,30.86
2022-08-14T09:27:22.708Z,30.99
2022-08-14T09:30:32.749Z,31.10
2022-08-14T09:33:56.652Z,30.56
2022-08-14T09:37:20.010Z,30.91
2022-08-14T09:40:29.477Z,31.06
2022-08-14T09:43:58.245Z,31.02
2022-08-14T09:47:01.130Z,30.99
2022-08-14T09:50:03.399Z,30.96
2022-08-14T09:53:17.823Z,30.94
2022-08-14T09:56:24.325Z,30.66
2022-08-14T09:59:46.464Z,31.01
2022-08-14T10:03:05.526Z,31.16
2022-08-14T10:06:12.039Z,31.55
2022-08-14T10:09:16.841Z,31.54
2022-08-14T10:12:28.753Z,31.29
2022-08-14T10:15:33.445Z,31.23
2022-08-14T10:18:37.131Z,31.57
2022-08-14T10:23:10.890Z,31.80
2022-08-14T10:25:17.582Z,31.68
2022-08-14T10:28:39.236Z,31.74
2022-08-14T10:31:44.656Z,31.93
2022-08-14T10:34:52.713Z,31.74
2022-08-14T10:38:00.653Z,31.80
2022-08-14T10:41:14.234Z,31.78
2022-08-14T10:44:22.019Z,31.95
2022-08-14T10:47:47.329Z,31.93
2022-08-14T10:50:59.850Z,31.84
2022-08-14T10:54:26.204Z,31.91
2022-08-14T10:57:34.228Z,31.95
2022-08-14T11:00:39.225Z,32.25
2022-08-14T11:03:56.156Z,32.17
2022-08-14T11:06:59.353Z,32.11
2022-08-14T11:10:08.200Z,32.43
2022-08-14T11:13:16.472Z,32.50
2022-08-14T11:16:19.600Z,32.55
2022-08-14T11:19:25.101Z,32.66
2022-08-14T11:22:56.391Z,32.28
2022-08-14T11:25:54.508Z,32.47
2022-08-14T11:29:00.272Z,32.59
2022-08-14T11:32:03.313Z,32.58
2022-08-14T11:35:06.543Z,32.92
2022-08-14T11:38:11.706Z,32.72
2022-08-14T11:41:17.128Z,32.53
2022-08-14T11:44:45.794Z,32.47
2022-08-14T11:48:11.150Z,32.15
2022-08-14T11:51:14.399Z,32.00
2022-08-14T11:54:19.605Z,31.85
2022-08-14T11:57:23.029Z,31.97
2022-08-14T12:00:31.643Z,32.28
2022-08-14T12:03:52.441Z,32.44
2022-08-14T12:07:01.699Z,32.54
2022-08-14T12:10:27.145Z,32.68
2022-08-14T12:13:32.537Z,32.60
2022-08-14T12:16:37.669Z,32.57
2022-08-14T12:19:53.872Z,32.47
2022-08-14T12:22:57.386Z,32.72
2022-08-14T12:26:12.155Z,33.09
2022-08-14T12:29:31.866Z,33.03
2022-08-14T12:32:47.134Z,33.14
2022-08-14T12:35:51.258Z,33.04
2022-08-14T12:39:00.393Z,33.07
2022-08-14T12:42:06.710Z,32.78
2022-08-14T12:45:13.093Z,32.67
2022-08-14T12:48:21.308Z,32.99
2022-08-14T12:51:34.328Z,33.07
2022-08-14T12:54:54.730Z,33.10
2022-08-14T12:58:36.287Z,33.13
2022-08-14T13:02:00.197Z,33.27
2022-08-14T13:04:56.733Z,33.21
2022-08-14T13:08:03.662Z,33.25
2022-08-14T13:11:06.435Z,33.26
2022-08-14T13:14:17.973Z,33.42
2022-08-14T13:17:21.971Z,33.38
2022-08-14T13:20:26.831Z,33.57
2022-08-14T13:23:36.342Z,33.13
2022-08-14T13:26:46.475Z,33.11
2022-08-14T13:29:52.432Z,32.83
2022-08-14T13:32:58.439Z,32.83
2022-08-14T13:36:03.090Z,32.87
2022-08-14T13:39:06.940Z,32.65
2022-08-14T13:42:14.223Z,32.42
2022-08-14T13:45:17.903Z,32.31
2022-08-14T13:48:32.264Z,32.38
2022-08-14T13:51:44.768Z,32.26
2022-08-14T13:54:55.292Z,32.15
2022-08-14T13:58:04.496Z,32.13
2022-08-14T14:01:07.432Z,32.07
2022-08-14T14:04:17.959Z,32.22
2022-08-14T14:07:24.014Z,32.22
2022-08-14T14:10:36.903Z,32.12
2022-08-14T14:13:41.861Z,32.01
2022-08-14T14:16:48.845Z,31.99
2022-08-14T14:19:52.643Z,31.93
2022-08-14T14:23:02.614Z,32.06
2022-08-14T14:26:06.748Z,32.25
2022-08-14T14:29:19.386Z,32.53
2022-08-14T14:32:32.190Z,32.88
2022-08-14T14:35:38.621Z,32.78
2022-08-14T14:38:44.292Z,32.99
2022-08-14T14:41:53.154Z,33.10
2022-08-14T14:45:14.463Z,32.75
2022-08-14T14:48:19.582Z,32.57
2022-08-14T14:51:22.091Z,32.28
2022-08-14T14:54:31.192Z,32.04
2022-08-14T14:57:36.268Z,31.67
2022-08-14T15:00:39.675Z,31.22
2022-08-14T15:03:44.023Z,30.99
2022-08-14T15:06:47.881Z,30.93
2022-08-14T15:09:50.497Z,30.94
2022-08-14T15:12:57.455Z,30.95
2022-08-14T15:15:59.891Z,30.97
2022-08-14T15:19:03.540Z,30.96
2022-08-14T15:22:06.880Z,30.58
2022-08-14T15:25:14.692Z,30.44
2022-08-14T15:28:21.704Z,30.31
2022-08-14T15:31:24.379Z,30.19
2022-08-14T15:34:44.996Z,30.12
2022-08-14T15:37:55.874Z,29.98
2022-08-14T15:41:04.731Z,29.87
2022-08-14T15:44:25.164Z,29.75
2022-08-14T15:47:31.518Z,29.83
2022-08-14T15:50:34.424Z,29.96
2022-08-14T15:53:36.680Z,30.24
2022-08-14T15:56:43.263Z,30.18
2022-08-14T16:00:04.419Z,30.15
2022-08-14T16:03:16.480Z,30.17
2022-08-14T16:06:21.177Z,30.18
2022-08-14T16:09:25.508Z,30.27
2022-08-14T16:12:41.125Z,30.29
2022-08-14T16:15:53.391Z,30.37
2022-08-14T16:18:58.139Z,30.24
2022-08-14T16:22:58.351Z,30.24
2022-08-14T16:25:36.250Z,30.22
2022-08-14T16:28:39.888Z,30.18
2022-08-14T16:31:43.750Z,30.09
2022-08-14T16:34:50.990Z,29.96
2022-08-14T16:37:58.231Z,29.79
2022-08-14T16:41:23.645Z,29.76
2022-08-14T16:44:39.095Z,29.65
2022-08-14T16:47:44.329Z,29.63
2022-08-14T16:50:50.982Z,29.45
2022-08-14T16:53:54.560Z,29.35
2022-08-14T16:57:25.857Z,29.26
2022-08-14T17:00:43.525Z,29.12
2022-08-14T17:04:08.639Z,28.97
2022-08-14T17:07:17.620Z,28.81
2022-08-14T17:10:27.987Z,28.64
2022-08-14T17:13:59.384Z,28.53
2022-08-14T17:16:57.458Z,28.37
2022-08-14T17:20:02.086Z,28.25
2022-08-14T17:23:12.185Z,28.17
2022-08-14T17:26:34.058Z,28.11
2022-08-14T17:29:56.152Z,28.02
2022-08-14T17:33:12.746Z,27.96
2022-08-14T17:36:21.311Z,27.88
2022-08-14T17:39:24.431Z,27.82
2022-08-14T17:43:02.786Z,27.74
2022-08-14T17:46:06.362Z,27.66
2022-08-14T17:49:18.310Z,27.60
2022-08-14T17:52:34.215Z,27.54
2022-08-14T17:56:02.797Z,27.47
2022-08-14T17:59:07.173Z,27.36
2022-08-14T18:02:16.617Z,27.22
2022-08-14T18:05:22.836Z,27.09
2022-08-14T18:08:34.396Z,26.97
2022-08-14T18:11:46.503Z,26.86
2022-08-14T18:14:52.968Z,26.74
2022-08-14T18:17:57.558Z,26.61
2022-08-14T18:21:40.783Z,26.47
2022-08-14T18:24:29.308Z,26.35
2022-08-14T18:27:41.669Z,26.25
2022-08-14T18:30:58.569Z,26.15
2022-08-14T18:34:11.729Z,26.03
2022-08-14T18:37:20.974Z,25.93
2022-08-14T18:40:34.414Z,25.82
2022-08-14T18:43:59.017Z,25.71
2022-08-14T18:47:15.950Z,25.60
2022-08-14T18:50:31.279Z,25.51
2022-08-14T18:53:54.318Z,25.40
2022-08-14T18:57:02.463Z,25.34
2022-08-14T19:00:24.501Z,25.31
2022-08-14T19:03:36.844Z,25.23
2022-08-14T19:06:43.570Z,25.07
2022-08-14T19:09:51.054Z,24.93
2022-08-14T19:12:53.035Z,24.87
2022-08-14T19:16:13.498Z,24.77
2022-08-14T19:19:17.214Z,24.72
2022-08-14T19:22:29.933Z,24.73
2022-08-14T19:25:52.826Z,24.66
2022-08-14T19:28:58.455Z,24.61
2022-08-14T19:32:02.873Z,24.52
2022-08-14T19:35:39.750Z,24.40
2022-08-14T19:39:02.054Z,24.37
2022-08-14T19:42:10.215Z,24.39
2022-08-14T19:45:18.885Z,24.36
2022-08-14T19:48:21.600Z,24.32
2022-08-14T19:51:24.443Z,24.27
2022-08-14T19:54:36.755Z,24.24
2022-08-14T19:57:38.921Z,24.19
2022-08-14T20:00:55.964Z,24.15
2022-08-14T20:04:02.485Z,24.10
2022-08-14T20:07:06.539Z,24.03
2022-08-14T20:11:06.339Z,24.00
2022-08-14T20:14:20.320Z,23.95
2022-08-14T20:17:25.117Z,23.94
2022-08-14T20:20:31.870Z,23.96
2022-08-14T20:23:38.576Z,23.92
2022-08-14T20:26:42.358Z,23.85
2022-08-14T20:30:29.473Z,23.85
2022-08-14T20:33:47.750Z,23.82
2022-08-14T20:37:00.511Z,23.77
2022-08-14T20:40:24.014Z,23.70
2022-08-14T20:43:52.897Z,23.67
2022-08-14T20:47:01.003Z,23.67
2022-08-14T20:50:25.481Z,23.65
2022-08-14T20:53:34.038Z,23.56
2022-08-14T20:56:40.617Z,23.49
2022-08-14T20:59:45.532Z,23.49
2022-08-14T21:02:51.439Z,23.45
2022-08-14T21:05:57.995Z,23.42
2022-08-14T21:09:03.762Z,23.36
2022-08-14T21:12:07.207Z,23.31
2022-08-14T21:15:32.309Z,23.21
2022-08-14T21:18:47.751Z,23.02
2022-08-14T21:21:54.733Z,22.97
2022-08-14T21:25:02.321Z,23.01
2022-08-14T21:28:29.450Z,23.06
2022-08-14T21:31:32.497Z,22.99
2022-08-14T21:34:37.637Z,22.96
2022-08-14T21:37:46.088Z,22.87
2022-08-14T21:40:52.819Z,22.78
2022-08-14T21:44:17.618Z,22.70
2022-08-14T21:47:23.549Z,22.63
2022-08-14T21:50:39.819Z,22.53
2022-08-14T21:53:58.596Z,22.49
2022-08-14T21:57:04.655Z,22.52
2022-08-14T22:00:31.579Z,22.61
2022-08-14T22:03:45.155Z,22.70
2022-08-14T22:06:57.368Z,22.65
2022-08-14T22:10:00.197Z,22.69
2022-08-14T22:13:02.670Z,22.73
2022-08-14T22:16:08.458Z,22.73
2022-08-14T22:19:47.193Z,22.74
2022-08-14T22:22:56.447Z,22.67
2022-08-14T22:25:59.357Z,22.64
2022-08-14T22:29:06.679Z,22.63
2022-08-14T22:32:11.314Z,22.65
2022-08-14T22:35:15.752Z,22.61
2022-08-14T22:38:37.572Z,22.53
2022-08-14T22:41:42.682Z,22.47
2022-08-14T22:44:45.146Z,22.54
2022-08-14T22:47:47.650Z,22.56
2022-08-14T22:50:58.508Z,22.61
2022-08-14T22:54:02.004Z,22.54
2022-08-14T22:57:10.392Z,22.44
2022-08-14T23:00:25.336Z,22.38
2022-08-14T23:03:28.892Z,22.30
2022-08-14T23:07:03.249Z,22.09
2022-08-14T23:10:03.591Z,22.02
2022-08-14T23:13:19.502Z,22.02
2022-08-14T23:16:24.024Z,22.09
2022-08-14T23:19:33.666Z,22.11
2022-08-14T23:22:37.066Z,22.15
2022-08-14T23:25:58.285Z,22.17
2022-08-14T23:29:04.353Z,22.09
2022-08-14T23:32:06.807Z,22.11
2022-08-14T23:35:27.109Z,22.09
2022-08-14T23:38:30.633Z,22.06
2022-08-14T23:41:47.045Z,22.07
2022-08-14T23:44:55.641Z,22.08
2022-08-14T23:48:01.574Z,22.00
2022-08-14T23:51:06.049Z,21.89
2022-08-14T23:54:47.450Z,21.83
2022-08-14T23:57:31.346Z,21.79
